Aeroporto :
LOGIN :

Iscrizione | Disclaimer

   EN    FR    IT 

 










Sommario :    VFR   VFR Marginale   IFR   IFR Intensivo   IFR Molto Intensivo
Visibilità : 
Base nubi : 
>= 8 km
>= 3000ft
5 / 8 km
1000 / 3000 ft
1500m / 5 km
500 / 1000 ft
800 / 1500m
200 / 500 ft
< 800m
< 200 ft
Simboli :   Temporali  Nebbia  Neve Forte  Precipitazioni Forti  Vento > 20 kt
SIGMETs :   Varie  Temporali  Ghiacco  Turbolenza  Onda orograficha  Ceneri Vulcaniche






- Altitudine del aeroporto : 148 ft
- Codice IATA : KHE


UKOH - Chernobayevka

ULTIMO METAR :
  • 242000Z 30008MPS 270V340 CAVOK 04/M01 Q1008 R03/CLRD65 NOSIG

METARs OBSOLETI :
  • 241930Z 30010G15MPS 260V330 CAVOK 04/M01 Q1008 R03/CLRD65 NOSIG
  • 241900Z 31009G14MPS CAVOK 04/M00 Q1007 R03/CLRD65 NOSIG
  • 241830Z 30009G15MPS 260V330 CAVOK 04/M00 Q1006 R21/290250 NOSIG
  • 241800Z 30009MPS 270V330 CAVOK 04/M00 Q1006 R21/290250 NOSIG

TAF TAF UKOH
Valido dal 24 a 18 ore il 25 a 03 ore UTC


241706Z 2418/2503 30010G15MPS 6000 BKN010 BKN020CB TX04/2418Z TNM01/2503Z
TEMPO 2418/2421 1000 SHRA BR BKN003 BKN015CB
BECMG 2421/2503 26009G15MPS



MetMap, La meteo Aeronautica in un colpo d'occhio ! - Copyright ORBIFLY Dicembre 2007 - Disclaimer

ORBIFLY MET'MAP TEAM :

Programmazione e sviluppo : Alexandra Zaïnal
Concezione : Baudouin d'Aumeries
Aiuto per la programmazione : Marc-Olivier Méhu
Supporto tecnico e logistico : Manuel Goepfert
Aiuto per la traduzione : Arnaldo La Scala

Contatto : metmap@orbifly.com




FONTI E CREDITI :

   NOAA